Yazd, Iran
Current Conditions -  °F | °C
As of 9:00 PM on Thursday 18 Dec 2014 (Local Time) from OIYY Reporting Station
Clear Clear  
Wind Chill: 45°   Ceiling: Unl
Heat Index: 45°   Visibility: 6mi
Dew Point: 37°   Wind: 2mph
Humidity: 76%   Direction: 160°SSE
Pressure: 30.27"   Gusts: NA
Location:  31.92°N, 54.37°E
Report Text: OIYY 181700Z 16002KT CAVOK 07/03 Q1025
Loading
Personal Weather Stations






























Interactive Weather Map New forecast layout! Learn more

10-Day Weather Forecast

Advertisements
Track Severe Weather on mobile